Time;durP1;ratioP1;P1;durP2;ratioP2;P2;SDS_P1;SDS_P2;PMS_P1;PMS_P2;Temp;Humidity;BMP_temperature;BMP_pressure;BME280_temperature;BME280_humidity;BME280_pressure;Samples;Min_cycle;Max_cycle;Signal;HPM_P1;HPM_P2
2023/12/13 00:01:46;;;;;;;34.08;15.43;;;;;;;;;;5055296;28;20431;-80
2023/12/13 00:04:12;;;;;;;29.58;13.93;;;;;;;;;;5071918;28;20411;-80
2023/12/13 00:06:38;;;;;;;26.42;13.40;;;;;;;;;;5055512;28;20420;-80
2023/12/13 00:09:04;;;;;;;28.23;13.68;;;;;;;;;;5080898;28;20412;-80
2023/12/13 00:11:31;;;;;;;27.38;13.52;;;;;;;;;;5056661;28;20747;-81
2023/12/13 00:13:57;;;;;;;24.52;12.93;;;;;;;;;;5106259;28;20431;-81
2023/12/13 00:16:23;;;;;;;27.90;13.23;;;;;;;;;;5070310;28;20423;-80
2023/12/13 00:18:49;;;;;;;26.87;13.40;;;;;;;;;;5056191;28;20776;-80
2023/12/13 00:21:17;;;;;;;26.98;13.07;;;;;;;;;;5072610;28;20752;-80
2023/12/13 00:23:44;;;;;;;23.67;11.95;;;;;;;;;;5089743;28;20475;-80
2023/12/13 00:26:14;;;;;;;23.35;11.70;;;;;;;;;;5055990;28;20396;-81
2023/12/13 00:28:40;;;;;;;23.57;12.10;;;;;;;;;;5052799;28;20393;-80
2023/12/13 00:31:06;;;;;;;26.98;12.18;;;;;;;;;;5082884;28;20756;-80
2023/12/13 00:33:33;;;;;;;26.35;12.52;;;;;;;;;;5071275;28;20419;-80
2023/12/13 00:35:59;;;;;;;26.25;12.40;;;;;;;;;;5089102;28;20446;-80
2023/12/13 00:38:25;;;;;;;24.08;11.27;;;;;;;;;;5072552;28;20411;-80
2023/12/13 00:40:51;;;;;;;28.98;12.43;;;;;;;;;;5071724;28;20771;-81
2023/12/13 00:43:17;;;;;;;27.80;12.30;;;;;;;;;;5106394;28;20407;-80
2023/12/13 00:45:43;;;;;;;23.70;11.97;;;;;;;;;;5088620;28;20854;-80
2023/12/13 00:48:09;;;;;;;26.83;12.02;;;;;;;;;;5069601;28;20404;-81
2023/12/13 00:50:36;;;;;;;26.83;12.20;;;;;;;;;;5053454;28;20426;-80
2023/12/13 00:53:02;;;;;;;27.23;12.30;;;;;;;;;;5111952;27;20405;-80
2023/12/13 00:55:28;;;;;;;29.75;12.73;;;;;;;;;;5061946;28;20903;-80
2023/12/13 00:57:54;;;;;;;30.15;12.77;;;;;;;;;;5071779;28;20453;-80
2023/12/13 01:00:20;;;;;;;28.83;12.73;;;;;;;;;;5070639;28;20496;-80
2023/12/13 01:02:47;;;;;;;31.40;13.25;;;;;;;;;;5088653;28;20407;-80
2023/12/13 01:05:13;;;;;;;30.75;13.25;;;;;;;;;;5071206;28;20501;-80
2023/12/13 01:07:39;;;;;;;33.67;14.18;;;;;;;;;;5070035;28;20434;-80
2023/12/13 01:10:07;;;;;;;32.05;13.93;;;;;;;;;;5053698;28;20414;-80
2023/12/13 01:12:33;;;;;;;36.22;14.40;;;;;;;;;;5072158;28;20408;-78
2023/12/13 01:14:59;;;;;;;36.88;15.63;;;;;;;;;;5070313;28;20407;-78
2023/12/13 01:17:25;;;;;;;35.73;15.27;;;;;;;;;;5071728;28;20419;-78
2023/12/13 01:19:52;;;;;;;36.95;15.18;;;;;;;;;;5088351;28;20415;-78
2023/12/13 01:22:19;;;;;;;37.15;15.30;;;;;;;;;;5043231;28;20829;-78
2023/12/13 01:24:45;;;;;;;40.63;16.43;;;;;;;;;;5071437;28;20774;-78
2023/12/13 01:27:11;;;;;;;39.30;17.45;;;;;;;;;;5071432;28;20479;-78
2023/12/13 01:29:37;;;;;;;42.17;17.98;;;;;;;;;;5069813;28;20408;-78
2023/12/13 01:32:03;;;;;;;40.97;17.50;;;;;;;;;;5071220;28;20969;-78
2023/12/13 01:34:30;;;;;;;42.75;17.80;;;;;;;;;;5070764;28;20422;-78
2023/12/13 01:36:56;;;;;;;44.65;18.58;;;;;;;;;;5054750;28;20456;-79
2023/12/13 01:39:22;;;;;;;49.55;19.13;;;;;;;;;;5069420;28;20470;-78
2023/12/13 01:41:48;;;;;;;49.78;19.38;;;;;;;;;;5070578;28;20484;-78
2023/12/13 01:44:14;;;;;;;52.88;20.35;;;;;;;;;;5053166;28;20438;-78
2023/12/13 01:46:41;;;;;;;56.45;21.55;;;;;;;;;;5070581;28;20427;-78
2023/12/13 01:49:08;;;;;;;66.03;21.83;;;;;;;;;;5070705;28;20895;-78
2023/12/13 01:51:35;;;;;;;66.05;22.00;;;;;;;;;;5070016;28;20419;-78
2023/12/13 01:54:02;;;;;;;68.72;22.02;;;;;;;;;;5070428;28;20478;-78
2023/12/13 01:56:29;;;;;;;69.40;23.05;;;;;;;;;;5068692;28;20427;-78
2023/12/13 01:58:55;;;;;;;63.22;22.30;;;;;;;;;;5069440;28;20403;-78
2023/12/13 02:01:21;;;;;;;71.07;23.17;;;;;;;;;;5053703;28;20424;-78
2023/12/13 02:03:47;;;;;;;78.80;24.42;;;;;;;;;;5069736;28;20407;-78
2023/12/13 02:06:13;;;;;;;75.22;24.52;;;;;;;;;;5053881;28;20411;-78
2023/12/13 02:08:39;;;;;;;77.22;24.33;;;;;;;;;;5053569;28;20424;-78
2023/12/13 02:11:06;;;;;;;74.78;24.67;;;;;;;;;;5071331;28;20426;-78
2023/12/13 02:13:32;;;;;;;74.60;24.85;;;;;;;;;;5068528;28;20494;-79
2023/12/13 02:15:58;;;;;;;78.97;26.75;;;;;;;;;;5069608;28;20434;-78
2023/12/13 02:18:25;;;;;;;73.95;25.92;;;;;;;;;;5070643;28;20406;-78
2023/12/13 02:20:52;;;;;;;80.57;25.75;;;;;;;;;;5070012;28;20430;-78
2023/12/13 02:23:18;;;;;;;84.28;26.73;;;;;;;;;;5087223;28;20399;-78
2023/12/13 02:25:47;;;;;;;77.43;26.48;;;;;;;;;;5068085;28;20420;-78
2023/12/13 02:28:13;;;;;;;89.18;28.48;;;;;;;;;;5070145;28;20469;-78
2023/12/13 02:30:43;;;;;;;88.03;28.50;;;;;;;;;;5068913;28;20443;-78
2023/12/13 02:33:10;;;;;;;87.20;27.33;;;;;;;;;;5070348;28;20402;-78
2023/12/13 02:35:36;;;;;;;75.25;26.77;;;;;;;;;;5069883;28;20407;-78
2023/12/13 02:38:02;;;;;;;72.50;27.17;;;;;;;;;;5069923;28;20408;-78
2023/12/13 02:40:28;;;;;;;78.10;27.00;;;;;;;;;;5068957;28;20419;-78
2023/12/13 02:42:55;;;;;;;72.72;26.70;;;;;;;;;;5086540;28;20404;-78
2023/12/13 02:45:21;;;;;;;67.50;25.98;;;;;;;;;;5035732;28;20434;-78
2023/12/13 02:47:49;;;;;;;65.30;25.60;;;;;;;;;;5053114;28;20396;-78
2023/12/13 02:50:16;;;;;;;68.70;26.00;;;;;;;;;;5052954;28;20408;-78
2023/12/13 02:52:42;;;;;;;67.97;24.98;;;;;;;;;;5053356;28;20404;-78
2023/12/13 02:55:12;;;;;;;68.82;26.23;;;;;;;;;;5068852;28;20418;-80
2023/12/13 02:57:38;;;;;;;76.20;26.30;;;;;;;;;;5069666;28;20759;-80
2023/12/13 03:00:05;;;;;;;76.55;25.90;;;;;;;;;;5084062;28;20419;-80
2023/12/13 03:02:32;;;;;;;76.82;26.30;;;;;;;;;;5085967;28;20408;-80
2023/12/13 03:04:58;;;;;;;74.30;26.60;;;;;;;;;;5069740;28;20422;-80
2023/12/13 03:07:24;;;;;;;69.90;25.55;;;;;;;;;;5069843;28;20412;-80
2023/12/13 03:09:50;;;;;;;78.93;25.73;;;;;;;;;;5060818;28;20795;-80
2023/12/13 03:12:16;;;;;;;67.00;25.38;;;;;;;;;;5068794;28;20399;-80
2023/12/13 03:14:42;;;;;;;71.82;26.05;;;;;;;;;;5068531;28;20457;-80
2023/12/13 03:17:08;;;;;;;68.72;25.48;;;;;;;;;;5051615;28;20420;-80
2023/12/13 03:19:34;;;;;;;75.40;26.15;;;;;;;;;;5068860;28;20899;-80
2023/12/13 03:22:00;;;;;;;74.50;25.55;;;;;;;;;;5069558;28;20416;-80
2023/12/13 03:24:26;;;;;;;80.28;27.08;;;;;;;;;;5052685;28;20395;-80
2023/12/13 03:26:52;;;;;;;89.88;27.70;;;;;;;;;;5068867;28;20399;-81
2023/12/13 03:29:18;;;;;;;84.50;27.07;;;;;;;;;;5052911;28;20421;-81
2023/12/13 03:31:44;;;;;;;91.15;27.45;;;;;;;;;;5085815;28;20411;-80
2023/12/13 03:34:11;;;;;;;83.78;27.27;;;;;;;;;;5051991;28;20426;-80
2023/12/13 03:36:37;;;;;;;96.03;28.95;;;;;;;;;;5104924;28;20411;-80
2023/12/13 03:39:04;;;;;;;92.55;27.60;;;;;;;;;;5056859;28;20415;-80
2023/12/13 03:41:30;;;;;;;88.47;27.25;;;;;;;;;;5106589;28;20431;-80
2023/12/13 03:43:56;;;;;;;84.03;26.55;;;;;;;;;;5056242;28;20410;-80
2023/12/13 03:46:23;;;;;;;76.63;26.02;;;;;;;;;;5072700;28;20936;-80
2023/12/13 03:48:49;;;;;;;79.53;26.23;;;;;;;;;;5088555;28;20403;-80
2023/12/13 03:51:15;;;;;;;74.07;25.40;;;;;;;;;;5071757;28;20980;-81
2023/12/13 03:53:42;;;;;;;73.13;25.35;;;;;;;;;;5088831;28;20457;-81
2023/12/13 03:56:09;;;;;;;75.87;25.80;;;;;;;;;;5106719;28;20400;-81
2023/12/13 03:58:36;;;;;;;72.70;24.85;;;;;;;;;;5089369;28;20403;-78
2023/12/13 04:01:02;;;;;;;55.50;23.20;;;;;;;;;;5055137;28;20431;-78
2023/12/13 04:03:28;;;;;;;57.78;24.40;;;;;;;;;;5039333;28;20410;-78
2023/12/13 04:05:54;;;;;;;51.65;23.83;;;;;;;;;;5072517;28;20406;-78
2023/12/13 04:08:20;;;;;;;56.92;23.88;;;;;;;;;;5070219;28;20412;-79
2023/12/13 04:10:46;;;;;;;60.40;24.85;;;;;;;;;;5055869;28;20418;-79
2023/12/13 04:13:12;;;;;;;53.80;23.70;;;;;;;;;;5039939;28;20410;-79
2023/12/13 04:15:38;;;;;;;52.70;24.63;;;;;;;;;;5055894;28;20399;-79
2023/12/13 04:18:04;;;;;;;57.28;24.17;;;;;;;;;;5072400;28;20896;-79
2023/12/13 04:20:31;;;;;;;58.83;24.85;;;;;;;;;;5074075;28;20419;-78
2023/12/13 04:22:57;;;;;;;55.72;23.77;;;;;;;;;;5070893;28;20430;-78
2023/12/13 04:25:23;;;;;;;53.10;23.50;;;;;;;;;;5071765;28;20948;-78
2023/12/13 04:27:49;;;;;;;57.22;25.08;;;;;;;;;;5072859;28;20864;-78
2023/12/13 04:30:15;;;;;;;55.85;24.58;;;;;;;;;;5088958;28;20756;-78
2023/12/13 04:32:41;;;;;;;57.13;24.20;;;;;;;;;;5055815;28;20776;-78
2023/12/13 04:35:08;;;;;;;61.42;25.77;;;;;;;;;;5072637;28;20461;-78
2023/12/13 04:37:34;;;;;;;53.47;22.80;;;;;;;;;;5071877;28;20411;-78
2023/12/13 04:40:01;;;;;;;52.90;23.73;;;;;;;;;;5071218;28;20423;-77
2023/12/13 04:42:27;;;;;;;56.63;24.50;;;;;;;;;;5056033;28;20981;-78
2023/12/13 04:44:53;;;;;;;55.47;24.63;;;;;;;;;;5105817;28;20752;-78
2023/12/13 04:47:19;;;;;;;51.73;23.53;;;;;;;;;;5062441;28;20810;-78
2023/12/13 04:49:46;;;;;;;56.40;24.05;;;;;;;;;;5071887;28;20396;-78
2023/12/13 04:52:12;;;;;;;59.83;24.45;;;;;;;;;;5070547;28;20888;-78
2023/12/13 04:54:38;;;;;;;51.00;23.95;;;;;;;;;;5070354;28;20422;-78
2023/12/13 04:57:04;;;;;;;56.55;24.40;;;;;;;;;;5070766;28;21178;-78
2023/12/13 04:59:31;;;;;;;54.97;24.05;;;;;;;;;;5054524;28;20457;-78
2023/12/13 05:01:57;;;;;;;55.58;23.50;;;;;;;;;;5071384;28;20431;-78
2023/12/13 05:04:23;;;;;;;54.00;23.48;;;;;;;;;;5071125;28;20396;-78
2023/12/13 05:06:49;;;;;;;67.70;25.42;;;;;;;;;;5071722;28;20403;-77
2023/12/13 05:09:15;;;;;;;57.13;24.20;;;;;;;;;;5071221;28;20473;-78
2023/12/13 05:11:42;;;;;;;57.93;24.83;;;;;;;;;;5055159;28;20753;-77
2023/12/13 05:14:08;;;;;;;53.00;23.13;;;;;;;;;;5069271;28;20419;-77
2023/12/13 05:16:34;;;;;;;58.42;24.98;;;;;;;;;;5070061;28;20507;-77
2023/12/13 05:19:00;;;;;;;64.95;25.95;;;;;;;;;;5054433;28;20430;-78
2023/12/13 05:21:26;;;;;;;62.58;25.17;;;;;;;;;;5086797;28;20423;-78
2023/12/13 05:23:52;;;;;;;55.92;24.42;;;;;;;;;;5054087;28;20778;-80
2023/12/13 05:26:18;;;;;;;59.10;24.70;;;;;;;;;;5073099;28;20401;-79
2023/12/13 05:28:45;;;;;;;61.00;25.88;;;;;;;;;;5053035;28;20404;-79
2023/12/13 05:31:21;;;;;;;65.65;26.55;;;;;;;;;;5098925;28;20432;-81
2023/12/13 05:33:47;;;;;;;113.20;30.67;;;;;;;;;;5070286;28;20436;-80
2023/12/13 05:36:14;;;;;;;67.40;26.70;;;;;;;;;;5071177;28;20411;-80
2023/12/13 05:38:41;;;;;;;203.80;35.80;;;;;;;;;;5071419;28;20415;-79
2023/12/13 05:41:07;;;;;;;54.63;24.30;;;;;;;;;;5063489;28;20426;-79
2023/12/13 05:43:36;;;;;;;61.83;25.73;;;;;;;;;;5052699;28;20427;-79
2023/12/13 05:46:05;;;;;;;69.05;27.15;;;;;;;;;;5064756;28;20415;-79
2023/12/13 05:48:32;;;;;;;65.65;25.88;;;;;;;;;;5054647;28;20404;-79
2023/12/13 05:51:01;;;;;;;68.80;26.75;;;;;;;;;;5070895;28;20400;-79
2023/12/13 05:53:28;;;;;;;101.53;28.48;;;;;;;;;;5070818;28;20551;-79
2023/12/13 05:55:54;;;;;;;65.80;27.15;;;;;;;;;;5071056;28;20407;-80
2023/12/13 05:58:20;;;;;;;90.07;28.27;;;;;;;;;;5071124;28;20956;-79
2023/12/13 06:00:46;;;;;;;239.80;37.67;;;;;;;;;;5070031;28;20424;-79
2023/12/13 06:03:12;;;;;;;142.63;33.80;;;;;;;;;;5069837;28;20497;-79
2023/12/13 06:05:39;;;;;;;72.25;28.23;;;;;;;;;;5070782;28;20892;-79
2023/12/13 06:08:05;;;;;;;71.03;26.80;;;;;;;;;;5069700;28;20412;-79
2023/12/13 06:10:31;;;;;;;91.87;31.07;;;;;;;;;;5070644;28;20425;-79
2023/12/13 06:12:57;;;;;;;103.75;30.38;;;;;;;;;;5053579;28;20415;-78
2023/12/13 06:15:23;;;;;;;144.80;32.20;;;;;;;;;;5050977;28;20816;-80
2023/12/13 06:17:49;;;;;;;506.47;54.33;;;;;;;;;;5070132;28;20922;-79
2023/12/13 06:20:16;;;;;;;367.60;46.58;;;;;;;;;;5050743;28;20901;-80
2023/12/13 06:22:42;;;;;;;69.40;26.63;;;;;;;;;;5053762;28;20403;-81
2023/12/13 06:25:08;;;;;;;63.17;25.08;;;;;;;;;;5038314;28;20436;-80
2023/12/13 06:27:34;;;;;;;110.07;29.08;;;;;;;;;;5097390;28;20465;-80
2023/12/13 06:30:00;;;;;;;145.93;34.83;;;;;;;;;;5069824;28;20403;-78
2023/12/13 06:32:26;;;;;;;83.90;31.05;;;;;;;;;;5069974;28;20513;-78
2023/12/13 06:34:52;;;;;;;180.10;36.92;;;;;;;;;;5069607;28;20433;-78
2023/12/13 06:37:19;;;;;;;226.40;37.13;;;;;;;;;;5079245;28;20498;-78
2023/12/13 06:39:45;;;;;;;80.45;30.15;;;;;;;;;;5053276;28;20576;-78
2023/12/13 06:42:12;;;;;;;75.30;29.55;;;;;;;;;;5086777;28;20466;-78
2023/12/13 06:44:38;;;;;;;85.20;30.83;;;;;;;;;;5103266;28;20436;-77
2023/12/13 06:47:05;;;;;;;83.78;29.92;;;;;;;;;;5086060;28;20412;-78
2023/12/13 06:49:34;;;;;;;78.55;28.98;;;;;;;;;;5036277;28;20406;-78
2023/12/13 06:52:01;;;;;;;81.25;29.63;;;;;;;;;;5069334;28;20400;-78
2023/12/13 06:54:30;;;;;;;82.03;29.17;;;;;;;;;;5070044;28;20468;-79
2023/12/13 06:56:57;;;;;;;136.77;32.55;;;;;;;;;;5084062;28;20542;-78
2023/12/13 06:59:23;;;;;;;92.43;30.08;;;;;;;;;;5069586;28;20483;-79
2023/12/13 07:01:49;;;;;;;75.25;28.65;;;;;;;;;;5069164;28;20419;-78
2023/12/13 07:04:15;;;;;;;76.55;29.00;;;;;;;;;;5070127;28;20412;-79
2023/12/13 07:06:45;;;;;;;75.82;28.73;;;;;;;;;;5069472;28;20411;-78
2023/12/13 07:09:18;;;;;;;76.47;29.92;;;;;;;;;;5069718;28;20439;-79
2023/12/13 07:11:46;;;;;;;79.75;30.02;;;;;;;;;;5072092;28;20404;-79
2023/12/13 07:14:12;;;;;;;89.35;30.70;;;;;;;;;;5073708;28;20926;-79
2023/12/13 07:16:38;;;;;;;151.07;36.40;;;;;;;;;;5090343;28;20399;-79
2023/12/13 07:19:04;;;;;;;89.30;32.03;;;;;;;;;;5106201;28;20891;-80
2023/12/13 07:21:30;;;;;;;94.70;32.35;;;;;;;;;;5072917;28;20979;-79
2023/12/13 07:23:56;;;;;;;83.10;30.83;;;;;;;;;;5090494;28;20764;-79
2023/12/13 07:26:22;;;;;;;99.60;32.33;;;;;;;;;;5090517;28;20751;-79
2023/12/13 07:28:49;;;;;;;81.63;29.90;;;;;;;;;;5055381;28;20450;-79
2023/12/13 07:31:15;;;;;;;80.13;29.73;;;;;;;;;;5072648;28;20420;-79
2023/12/13 07:33:41;;;;;;;87.63;31.05;;;;;;;;;;5072660;28;20417;-78
2023/12/13 07:36:08;;;;;;;78.85;29.55;;;;;;;;;;5070131;28;20431;-79
2023/12/13 07:38:34;;;;;;;84.90;31.00;;;;;;;;;;5055615;28;20421;-79
2023/12/13 07:41:00;;;;;;;82.05;30.17;;;;;;;;;;5053879;28;20429;-79
2023/12/13 07:43:28;;;;;;;87.05;30.98;;;;;;;;;;5039119;28;20419;-78
2023/12/13 07:45:54;;;;;;;95.35;33.42;;;;;;;;;;5065028;28;20410;-78
2023/12/13 07:48:21;;;;;;;89.07;32.28;;;;;;;;;;5056362;28;20403;-78
2023/12/13 07:50:47;;;;;;;93.97;32.05;;;;;;;;;;5072393;28;20899;-78
2023/12/13 07:53:14;;;;;;;85.60;30.88;;;;;;;;;;5072656;28;20445;-78
2023/12/13 07:55:40;;;;;;;79.90;30.33;;;;;;;;;;5056564;28;20967;-78
2023/12/13 07:58:06;;;;;;;63.47;27.17;;;;;;;;;;5076413;28;20522;-77
2023/12/13 08:00:32;;;;;;;89.13;30.35;;;;;;;;;;5048787;28;20435;-77
2023/12/13 08:02:58;;;;;;;84.10;30.73;;;;;;;;;;5072179;28;20437;-77
2023/12/13 08:05:24;;;;;;;85.25;30.52;;;;;;;;;;5088684;28;21061;-77
2023/12/13 08:07:50;;;;;;;90.35;31.92;;;;;;;;;;5052094;28;20899;-77
2023/12/13 08:10:17;;;;;;;87.57;33.03;;;;;;;;;;5047478;28;20423;-77
2023/12/13 08:12:43;;;;;;;90.57;33.83;;;;;;;;;;5066939;28;20422;-78
2023/12/13 08:15:10;;;;;;;81.80;31.08;;;;;;;;;;5084439;28;20406;-81
2023/12/13 08:17:36;;;;;;;226.85;43.60;;;;;;;;;;5093743;28;20409;-81
2023/12/13 08:20:02;;;;;;;95.23;31.57;;;;;;;;;;5088375;28;21026;-81
2023/12/13 08:22:28;;;;;;;90.70;32.20;;;;;;;;;;5069614;28;20419;-79
2023/12/13 08:24:54;;;;;;;102.15;33.33;;;;;;;;;;5055061;28;20415;-80
2023/12/13 08:27:20;;;;;;;112.10;34.55;;;;;;;;;;5072961;28;20400;-79
2023/12/13 08:29:46;;;;;;;90.25;32.88;;;;;;;;;;5055477;28;20764;-77
2023/12/13 08:32:14;;;;;;;92.75;33.72;;;;;;;;;;5071563;28;20403;-78
2023/12/13 08:34:40;;;;;;;95.85;33.75;;;;;;;;;;5106331;28;20456;-77
2023/12/13 08:37:06;;;;;;;91.00;31.80;;;;;;;;;;5089063;28;20421;-77
2023/12/13 08:39:33;;;;;;;94.45;33.42;;;;;;;;;;5071387;28;20745;-77
2023/12/13 08:41:59;;;;;;;95.28;33.63;;;;;;;;;;5087020;28;20515;-77
2023/12/13 08:44:25;;;;;;;84.43;32.03;;;;;;;;;;5087958;28;20403;-77
2023/12/13 08:46:51;;;;;;;92.47;33.90;;;;;;;;;;5070060;28;20910;-77
2023/12/13 08:49:18;;;;;;;93.32;33.45;;;;;;;;;;5070683;28;20759;-77
2023/12/13 08:51:44;;;;;;;97.75;33.45;;;;;;;;;;5087317;28;20399;-77
2023/12/13 08:54:10;;;;;;;98.75;33.20;;;;;;;;;;5088166;28;20486;-77
2023/12/13 08:56:36;;;;;;;104.65;34.15;;;;;;;;;;5054277;28;20400;-78
2023/12/13 08:59:02;;;;;;;92.43;32.43;;;;;;;;;;5071832;28;20516;-77
2023/12/13 09:01:28;;;;;;;92.45;33.55;;;;;;;;;;5069323;28;20435;-77
2023/12/13 09:03:54;;;;;;;86.00;33.85;;;;;;;;;;5087858;28;20406;-77
2023/12/13 09:06:20;;;;;;;89.13;33.35;;;;;;;;;;5070790;28;20907;-77
2023/12/13 09:08:46;;;;;;;92.88;33.50;;;;;;;;;;5053344;28;20408;-77
2023/12/13 09:11:13;;;;;;;86.90;32.85;;;;;;;;;;5068969;28;20480;-77
2023/12/13 09:13:39;;;;;;;82.45;32.28;;;;;;;;;;5065877;28;20791;-77
2023/12/13 09:16:05;;;;;;;87.13;32.25;;;;;;;;;;5087225;28;20400;-77
2023/12/13 09:18:31;;;;;;;92.85;33.05;;;;;;;;;;5070779;28;20436;-77
2023/12/13 09:20:57;;;;;;;91.50;32.75;;;;;;;;;;5082061;28;20428;-77
2023/12/13 09:23:24;;;;;;;84.18;32.63;;;;;;;;;;5102268;28;20412;-77
2023/12/13 09:25:50;;;;;;;74.68;30.85;;;;;;;;;;5051821;28;20805;-77
2023/12/13 09:28:16;;;;;;;108.70;34.20;;;;;;;;;;5084359;28;20431;-77
2023/12/13 09:30:43;;;;;;;83.20;32.55;;;;;;;;;;5051737;28;20423;-77
2023/12/13 09:33:11;;;;;;;84.40;32.15;;;;;;;;;;5065343;28;20427;-77
2023/12/13 09:35:37;;;;;;;78.00;31.70;;;;;;;;;;5067707;28;20423;-77
2023/12/13 09:38:06;;;;;;;81.13;33.05;;;;;;;;;;5062781;28;20419;-77
2023/12/13 09:40:32;;;;;;;88.43;33.65;;;;;;;;;;5067247;28;20419;-78
2023/12/13 09:43:00;;;;;;;83.43;32.30;;;;;;;;;;5065734;28;20491;-77
2023/12/13 09:45:27;;;;;;;86.90;33.70;;;;;;;;;;5060058;28;20455;-77
2023/12/13 09:47:53;;;;;;;83.97;34.30;;;;;;;;;;5069552;28;20453;-77
2023/12/13 09:50:19;;;;;;;83.32;34.13;;;;;;;;;;5100873;28;20427;-77
2023/12/13 09:52:47;;;;;;;88.68;35.20;;;;;;;;;;5082844;28;20408;-77
2023/12/13 09:55:15;;;;;;;87.78;36.08;;;;;;;;;;5070633;28;20934;-78
2023/12/13 09:57:41;;;;;;;104.60;37.83;;;;;;;;;;5053045;28;20465;-77
2023/12/13 10:00:07;;;;;;;85.00;34.05;;;;;;;;;;5067933;28;20435;-77
2023/12/13 10:02:33;;;;;;;73.38;32.25;;;;;;;;;;5056265;28;20417;-77
2023/12/13 10:04:59;;;;;;;78.07;33.22;;;;;;;;;;5070576;28;20407;-77
2023/12/13 10:07:28;;;;;;;86.10;33.83;;;;;;;;;;5071948;28;20456;-77
2023/12/13 10:09:55;;;;;;;76.13;32.50;;;;;;;;;;5059882;28;20415;-79
2023/12/13 10:12:22;;;;;;;67.57;31.45;;;;;;;;;;5067687;28;20748;-77
2023/12/13 10:14:48;;;;;;;74.30;31.92;;;;;;;;;;5089408;28;20411;-77
2023/12/13 10:17:14;;;;;;;84.20;32.95;;;;;;;;;;5052105;28;20502;-77
2023/12/13 10:19:40;;;;;;;78.32;32.85;;;;;;;;;;5068419;28;20426;-77
2023/12/13 10:22:06;;;;;;;75.97;32.72;;;;;;;;;;5052318;28;20992;-77
2023/12/13 10:24:33;;;;;;;75.72;31.77;;;;;;;;;;5084274;28;20396;-79
2023/12/13 10:26:59;;;;;;;69.90;31.55;;;;;;;;;;5084691;28;20482;-79
2023/12/13 10:29:25;;;;;;;73.73;31.53;;;;;;;;;;5068959;28;20396;-79
2023/12/13 10:31:53;;;;;;;74.53;32.85;;;;;;;;;;5053958;28;20416;-78
2023/12/13 10:34:19;;;;;;;73.82;31.33;;;;;;;;;;5054129;28;20411;-78
2023/12/13 10:36:46;;;;;;;72.20;31.23;;;;;;;;;;5073524;28;20752;-78
2023/12/13 10:39:13;;;;;;;70.55;31.85;;;;;;;;;;5099062;27;20759;-79
2023/12/13 10:41:42;;;;;;;68.65;31.00;;;;;;;;;;5085007;28;20519;-78
2023/12/13 10:44:09;;;;;;;74.93;30.65;;;;;;;;;;5069782;28;20729;-78
2023/12/13 10:46:36;;;;;;;75.68;31.67;;;;;;;;;;5051102;28;20400;-78
2023/12/13 10:49:06;;;;;;;77.78;33.05;;;;;;;;;;5051612;28;20404;-78
2023/12/13 10:51:33;;;;;;;74.90;30.83;;;;;;;;;;5061292;28;20515;-78
2023/12/13 10:53:59;;;;;;;71.80;31.60;;;;;;;;;;5101998;28;20973;-78
2023/12/13 10:56:26;;;;;;;73.70;32.45;;;;;;;;;;5069266;28;20953;-78
2023/12/13 10:58:53;;;;;;;76.30;31.17;;;;;;;;;;5068158;28;20883;-78
2023/12/13 11:01:19;;;;;;;77.17;31.77;;;;;;;;;;5080364;28;21009;-77
2023/12/13 11:03:45;;;;;;;70.93;30.83;;;;;;;;;;5082171;28;20455;-78
2023/12/13 11:06:16;;;;;;;69.70;31.00;;;;;;;;;;5052449;28;20403;-77
2023/12/13 11:08:43;;;;;;;70.53;31.67;;;;;;;;;;5069216;28;20767;-78
2023/12/13 11:11:11;;;;;;;69.57;30.63;;;;;;;;;;5085437;28;20452;-78
2023/12/13 11:13:49;;;;;;;79.88;31.70;;;;;;;;;;5052010;28;20408;-78
2023/12/13 11:16:20;;;;;;;82.97;32.53;;;;;;;;;;5067309;28;20438;-78
2023/12/13 11:18:46;;;;;;;81.05;32.20;;;;;;;;;;5063223;28;20481;-78
2023/12/13 11:21:48;;;;;;;88.25;32.85;;;;;;;;;;5068284;28;20419;-78
2023/12/13 11:24:26;;;;;;;75.03;30.73;;;;;;;;;;5047728;28;20401;-77
2023/12/13 11:26:58;;;;;;;74.93;31.63;;;;;;;;;;5061111;28;20453;-77
2023/12/13 11:29:27;;;;;;;96.45;33.95;;;;;;;;;;5102063;28;20404;-77
2023/12/13 11:31:53;;;;;;;104.45;34.47;;;;;;;;;;5102290;28;20422;-77
2023/12/13 11:34:31;;;;;;;97.15;33.83;;;;;;;;;;5069235;28;20906;-78
2023/12/13 11:36:57;;;;;;;116.03;36.17;;;;;;;;;;5069412;28;20587;-78
2023/12/13 11:39:23;;;;;;;109.20;35.58;;;;;;;;;;5066679;28;20420;-76
2023/12/13 11:41:50;;;;;;;115.50;36.55;;;;;;;;;;5052188;28;20420;-76
2023/12/13 11:44:16;;;;;;;136.73;37.95;;;;;;;;;;5052183;28;20491;-78
2023/12/13 11:46:42;;;;;;;153.60;41.53;;;;;;;;;;5068723;28;20435;-77
2023/12/13 11:49:08;;;;;;;139.23;38.38;;;;;;;;;;5067370;28;20483;-78
2023/12/13 11:51:34;;;;;;;116.85;37.03;;;;;;;;;;5052277;28;20400;-77
2023/12/13 11:54:00;;;;;;;176.32;43.05;;;;;;;;;;5051951;28;20466;-77
2023/12/13 11:56:27;;;;;;;175.27;42.63;;;;;;;;;;5068360;28;20907;-77
2023/12/13 11:58:53;;;;;;;128.47;39.67;;;;;;;;;;5056333;28;20528;-77
2023/12/13 12:01:19;;;;;;;166.43;42.60;;;;;;;;;;5071753;28;20449;-78
2023/12/13 12:03:45;;;;;;;169.68;42.03;;;;;;;;;;5055528;28;20423;-79
2023/12/13 12:06:16;;;;;;;169.45;42.03;;;;;;;;;;5072883;28;20937;-79
2023/12/13 12:08:42;;;;;;;183.30;43.67;;;;;;;;;;5073184;28;20423;-79
2023/12/13 12:11:08;;;;;;;164.27;41.67;;;;;;;;;;5072430;28;20404;-79
2023/12/13 12:13:34;;;;;;;158.80;41.33;;;;;;;;;;5055412;28;20427;-79
2023/12/13 12:16:00;;;;;;;148.98;40.90;;;;;;;;;;5056150;28;20408;-79
2023/12/13 12:18:27;;;;;;;200.30;44.60;;;;;;;;;;5072226;28;20404;-78
2023/12/13 12:20:53;;;;;;;141.07;38.10;;;;;;;;;;5055492;28;20424;-77
2023/12/13 12:23:19;;;;;;;135.52;38.03;;;;;;;;;;5038973;28;20392;-77
2023/12/13 12:25:45;;;;;;;146.48;40.05;;;;;;;;;;5039394;28;20403;-76
2023/12/13 12:28:11;;;;;;;143.40;40.05;;;;;;;;;;5087988;28;20427;-79
2023/12/13 12:30:42;;;;;;;149.00;39.15;;;;;;;;;;5070480;28;20431;-76
2023/12/13 12:33:09;;;;;;;130.55;38.33;;;;;;;;;;5071811;28;20467;-78
2023/12/13 12:35:35;;;;;;;142.02;37.67;;;;;;;;;;5070557;28;20403;-78
2023/12/13 12:38:03;;;;;;;174.50;41.03;;;;;;;;;;5070012;28;20875;-77
2023/12/13 12:40:29;;;;;;;113.63;36.63;;;;;;;;;;5055200;28;20442;-79
2023/12/13 12:42:55;;;;;;;143.48;38.78;;;;;;;;;;5053622;28;20401;-79
2023/12/13 12:45:21;;;;;;;133.60;37.50;;;;;;;;;;5085580;28;20471;-79
2023/12/13 12:47:47;;;;;;;142.60;39.87;;;;;;;;;;5050581;28;20396;-78
2023/12/13 12:50:13;;;;;;;130.70;38.72;;;;;;;;;;5036256;28;20435;-78
2023/12/13 12:52:41;;;;;;;113.60;36.20;;;;;;;;;;5052480;28;20557;-78
2023/12/13 12:55:08;;;;;;;106.63;35.17;;;;;;;;;;5069691;28;20549;-78
2023/12/13 12:57:34;;;;;;;113.88;35.60;;;;;;;;;;5083940;28;20721;-78
2023/12/13 13:00:00;;;;;;;110.00;35.45;;;;;;;;;;5070451;28;20407;-78
2023/12/13 13:02:27;;;;;;;117.22;34.67;;;;;;;;;;5071877;28;20511;-78
2023/12/13 13:04:53;;;;;;;107.53;35.25;;;;;;;;;;5038227;28;20400;-78
2023/12/13 13:07:19;;;;;;;112.05;35.42;;;;;;;;;;5061953;28;20520;-79
2023/12/13 13:09:45;;;;;;;106.18;32.97;;;;;;;;;;5087186;28;20493;-78
2023/12/13 13:12:12;;;;;;;97.90;32.33;;;;;;;;;;5086111;28;20914;-78
2023/12/13 13:14:39;;;;;;;85.32;30.08;;;;;;;;;;5071281;28;20478;-80
2023/12/13 13:17:05;;;;;;;81.63;29.27;;;;;;;;;;5072006;28;20404;-80
2023/12/13 13:19:31;;;;;;;80.75;30.15;;;;;;;;;;5071612;28;20418;-80
2023/12/13 13:21:57;;;;;;;72.63;28.25;;;;;;;;;;5070878;28;20431;-80
2023/12/13 13:24:23;;;;;;;70.90;29.85;;;;;;;;;;5065223;28;20893;-80
2023/12/13 13:26:50;;;;;;;73.45;28.70;;;;;;;;;;5080856;28;20407;-79
2023/12/13 13:29:16;;;;;;;72.75;29.80;;;;;;;;;;5087903;28;20461;-80
2023/12/13 13:31:42;;;;;;;70.60;28.33;;;;;;;;;;5056653;28;20973;-79
2023/12/13 13:34:08;;;;;;;77.47;29.23;;;;;;;;;;5085315;28;20431;-80
2023/12/13 13:36:34;;;;;;;68.63;28.42;;;;;;;;;;5088914;28;20895;-80
2023/12/13 13:39:00;;;;;;;71.28;29.75;;;;;;;;;;5054100;28;20400;-79
2023/12/13 13:41:28;;;;;;;66.45;28.45;;;;;;;;;;5085737;28;20803;-79
2023/12/13 13:43:54;;;;;;;68.07;30.08;;;;;;;;;;5070600;28;20430;-80
2023/12/13 13:46:21;;;;;;;65.10;28.20;;;;;;;;;;5070881;28;20504;-79
2023/12/13 13:48:47;;;;;;;77.93;30.57;;;;;;;;;;5068446;28;20425;-79
2023/12/13 13:51:13;;;;;;;75.32;29.80;;;;;;;;;;5053400;28;20431;-79
2023/12/13 13:53:40;;;;;;;79.50;30.57;;;;;;;;;;5069685;28;20919;-79
2023/12/13 13:56:06;;;;;;;76.55;31.52;;;;;;;;;;5068974;28;21022;-79
2023/12/13 13:58:32;;;;;;;75.15;31.02;;;;;;;;;;5085081;28;20503;-79
2023/12/13 14:00:58;;;;;;;84.00;31.15;;;;;;;;;;5083286;28;20475;-80
2023/12/13 14:03:24;;;;;;;70.95;29.33;;;;;;;;;;5069078;28;20454;-80
2023/12/13 14:05:52;;;;;;;38.50;18.70;;;;;;;;;;5052656;28;20438;-81
2023/12/13 14:08:18;;;;;;;33.53;15.33;;;;;;;;;;5088371;28;20404;-80
2023/12/13 14:10:44;;;;;;;27.92;13.43;;;;;;;;;;5052508;28;20427;-80